createdAt,value
2023-12-17T00:00:07.620Z,80.98
2023-12-17T00:02:34.469Z,81.40
2023-12-17T00:05:01.389Z,81.18
2023-12-17T00:07:28.276Z,81.28
2023-12-17T00:09:57.012Z,80.87
2023-12-17T00:12:25.307Z,80.70
2023-12-17T00:14:55.228Z,80.85
2023-12-17T00:17:22.118Z,81.14
2023-12-17T00:19:51.364Z,81.52
2023-12-17T00:22:18.256Z,81.84
2023-12-17T00:24:45.087Z,81.66
2023-12-17T00:27:12.249Z,81.03
2023-12-17T00:29:39.061Z,80.92
2023-12-17T00:32:06.444Z,81.06
2023-12-17T00:34:39.331Z,81.13
2023-12-17T00:37:06.274Z,81.62
2023-12-17T00:39:33.107Z,81.47
2023-12-17T00:42:13.304Z,81.52
2023-12-17T00:44:40.240Z,81.61
2023-12-17T00:47:07.053Z,81.49
2023-12-17T00:49:36.593Z,81.90
2023-12-17T00:52:03.592Z,82.16
2023-12-17T00:54:34.230Z,81.97
2023-12-17T00:57:01.196Z,82.37
2023-12-17T00:59:31.263Z,82.22
2023-12-17T01:01:58.087Z,82.08
2023-12-17T01:04:24.958Z,82.10
2023-12-17T01:06:51.923Z,81.69
2023-12-17T01:09:23.125Z,81.92
2023-12-17T01:11:50.355Z,81.52
2023-12-17T01:14:17.199Z,81.76
2023-12-17T01:16:44.084Z,81.90
2023-12-17T01:19:11.068Z,81.57
2023-12-17T01:21:37.970Z,81.77
2023-12-17T01:24:07.196Z,81.63
2023-12-17T01:26:34.090Z,81.86
2023-12-17T01:29:00.918Z,81.45
2023-12-17T01:31:27.783Z,81.60
2023-12-17T01:33:55.070Z,81.58
2023-12-17T01:36:21.965Z,81.75
2023-12-17T01:38:50.086Z,82.11
2023-12-17T01:41:16.932Z,81.98
2023-12-17T01:43:46.293Z,82.49
2023-12-17T01:46:16.724Z,81.97
2023-12-17T01:48:45.670Z,82.14
2023-12-17T01:51:13.457Z,82.19
2023-12-17T01:53:41.242Z,82.39
2023-12-17T01:56:09.032Z,82.11
2023-12-17T01:58:36.116Z,81.89
2023-12-17T02:01:09.094Z,81.98
2023-12-17T02:03:45.209Z,82.37
2023-12-17T02:06:14.969Z,82.09
2023-12-17T02:08:47.785Z,82.02
2023-12-17T02:11:17.999Z,82.21
2023-12-17T02:13:45.939Z,82.08
2023-12-17T02:16:18.664Z,82.18
2023-12-17T02:18:47.913Z,82.37
2023-12-17T02:21:16.644Z,82.56
2023-12-17T02:23:43.565Z,82.44
2023-12-17T02:26:18.080Z,82.49
2023-12-17T02:28:46.957Z,82.15
2023-12-17T02:31:13.877Z,82.21
2023-12-17T02:33:40.883Z,82.27
2023-12-17T02:36:15.458Z,82.26
2023-12-17T02:38:42.677Z,81.94
2023-12-17T02:41:16.337Z,81.69
2023-12-17T02:43:45.911Z,81.95
2023-12-17T02:46:12.780Z,81.88
2023-12-17T02:48:43.765Z,81.96
2023-12-17T02:51:10.913Z,81.75
2023-12-17T02:53:37.843Z,82.01
2023-12-17T02:56:05.338Z,81.78
2023-12-17T02:58:35.142Z,81.55
2023-12-17T03:01:02.052Z,81.31
2023-12-17T03:03:28.962Z,81.25
2023-12-17T03:05:56.253Z,81.00
2023-12-17T03:08:25.022Z,81.01
2023-12-17T03:10:51.872Z,80.73
2023-12-17T03:13:20.994Z,80.53
2023-12-17T03:15:51.544Z,81.08
2023-12-17T03:18:27.027Z,80.72
2023-12-17T03:20:54.020Z,80.70
2023-12-17T03:23:20.915Z,80.15
2023-12-17T03:25:47.689Z,80.22
2023-12-17T03:28:19.132Z,79.93
2023-12-17T03:30:49.716Z,80.22
2023-12-17T03:33:17.442Z,80.05
2023-12-17T03:35:44.409Z,80.48
2023-12-17T03:38:11.265Z,80.33
2023-12-17T03:40:39.131Z,80.08
2023-12-17T03:43:08.032Z,79.85
2023-12-17T03:45:35.449Z,79.88
2023-12-17T03:48:03.123Z,80.00
2023-12-17T03:50:29.958Z,79.75
2023-12-17T03:52:59.757Z,79.69
2023-12-17T03:55:32.943Z,79.48
2023-12-17T03:58:00.102Z,79.49
2023-12-17T04:00:27.095Z,79.82
2023-12-17T04:03:02.556Z,79.36
2023-12-17T04:05:30.088Z,79.20
2023-12-17T04:07:57.597Z,79.05
2023-12-17T04:10:28.330Z,79.24
2023-12-17T04:12:55.175Z,78.69
2023-12-17T04:15:30.269Z,78.93
2023-12-17T04:17:57.295Z,79.46
2023-12-17T04:20:24.175Z,79.36
2023-12-17T04:22:50.970Z,79.74
2023-12-17T04:25:17.749Z,79.71
2023-12-17T04:27:44.872Z,79.07
2023-12-17T04:30:12.264Z,78.44
2023-12-17T04:32:42.153Z,78.32
2023-12-17T04:35:09.862Z,78.26
2023-12-17T04:37:42.952Z,77.77
2023-12-17T04:40:15.230Z,77.29
2023-12-17T04:42:44.763Z,77.11
2023-12-17T04:45:11.683Z,76.61
2023-12-17T04:47:38.937Z,76.51
2023-12-17T04:50:07.054Z,76.53
2023-12-17T04:52:36.451Z,76.74
2023-12-17T04:55:03.806Z,76.54
2023-12-17T04:57:39.766Z,76.46
2023-12-17T05:00:08.875Z,75.99
2023-12-17T05:02:35.781Z,75.75
2023-12-17T05:05:03.176Z,75.99
2023-12-17T05:07:30.072Z,75.49
2023-12-17T05:09:56.929Z,75.61
2023-12-17T05:12:23.744Z,75.01
2023-12-17T05:14:50.709Z,75.70
2023-12-17T05:17:18.538Z,74.72
2023-12-17T05:19:48.802Z,75.43
2023-12-17T05:22:15.835Z,75.28
2023-12-17T05:24:45.541Z,74.67
2023-12-17T05:27:12.419Z,75.02
2023-12-17T05:29:39.288Z,75.12
2023-12-17T05:32:06.233Z,74.83
2023-12-17T05:34:33.252Z,75.15
2023-12-17T05:37:03.362Z,75.34
2023-12-17T05:39:30.237Z,75.28
2023-12-17T05:41:57.102Z,75.03
2023-12-17T05:44:37.529Z,74.63
2023-12-17T05:47:10.477Z,74.37
2023-12-17T05:49:40.769Z,74.44
2023-12-17T05:52:09.888Z,74.95
2023-12-17T05:54:40.890Z,74.42
2023-12-17T05:57:09.738Z,74.61
2023-12-17T05:59:36.701Z,74.29
2023-12-17T06:02:03.689Z,74.31
2023-12-17T06:04:30.599Z,74.04
2023-12-17T06:06:57.621Z,73.88
2023-12-17T06:09:38.854Z,74.26
2023-12-17T06:12:08.973Z,74.29
2023-12-17T06:14:35.959Z,74.49
2023-12-17T06:17:10.320Z,74.59
2023-12-17T06:19:38.437Z,75.18
2023-12-17T06:22:05.654Z,74.40
2023-12-17T06:24:32.661Z,74.63
2023-12-17T06:27:01.228Z,74.93
2023-12-17T06:29:28.149Z,74.95
2023-12-17T06:31:54.944Z,75.09
2023-12-17T06:34:21.891Z,74.94
2023-12-17T06:36:50.456Z,75.15
2023-12-17T06:39:17.263Z,75.70
2023-12-17T06:41:44.523Z,75.54
2023-12-17T06:44:12.257Z,75.56
2023-12-17T06:46:40.397Z,76.20
2023-12-17T06:49:07.614Z,75.97
2023-12-17T06:51:39.056Z,75.86
2023-12-17T06:54:06.164Z,75.63
2023-12-17T06:56:33.098Z,75.78
2023-12-17T06:58:59.937Z,76.01
2023-12-17T07:01:38.855Z,75.76
2023-12-17T07:04:06.143Z,75.34
2023-12-17T07:06:33.282Z,76.06
2023-12-17T07:09:00.148Z,76.39
2023-12-17T07:11:27.042Z,75.40
2023-12-17T07:13:58.643Z,75.54
2023-12-17T07:16:29.135Z,75.44
2023-12-17T07:18:56.568Z,75.27
2023-12-17T07:21:23.664Z,74.89
2023-12-17T07:23:53.185Z,74.64
2023-12-17T07:26:23.162Z,73.98
2023-12-17T07:28:50.317Z,74.02
2023-12-17T07:31:17.344Z,73.98
2023-12-17T07:33:45.293Z,73.82
2023-12-17T07:36:12.283Z,73.91
2023-12-17T07:38:45.046Z,73.22
2023-12-17T07:41:12.063Z,73.28
2023-12-17T07:43:39.180Z,73.46
2023-12-17T07:46:06.113Z,73.82
2023-12-17T07:48:33.160Z,73.23
2023-12-17T07:51:03.542Z,72.85
2023-12-17T07:53:30.388Z,72.89
2023-12-17T07:55:57.253Z,72.55
2023-12-17T07:58:28.090Z,72.93
2023-12-17T08:00:55.038Z,72.31
2023-12-17T08:03:25.392Z,72.48
2023-12-17T08:05:52.736Z,72.77
2023-12-17T08:08:21.299Z,72.09
2023-12-17T08:10:48.256Z,72.84
2023-12-17T08:13:17.537Z,72.64
2023-12-17T08:15:46.614Z,72.49
2023-12-17T08:18:13.881Z,72.93
2023-12-17T08:20:43.551Z,73.57
2023-12-17T08:23:10.607Z,73.05
2023-12-17T08:25:37.413Z,73.01
2023-12-17T08:28:04.225Z,72.90
2023-12-17T08:30:31.094Z,73.12
2023-12-17T08:32:58.016Z,73.56
2023-12-17T08:35:24.921Z,73.62
2023-12-17T08:37:51.896Z,73.55
2023-12-17T08:40:26.147Z,73.61
2023-12-17T08:42:52.994Z,73.79
2023-12-17T08:45:21.776Z,73.91
2023-12-17T08:47:53.017Z,73.82
2023-12-17T08:50:20.324Z,73.95
2023-12-17T08:52:47.218Z,74.17
2023-12-17T08:55:14.416Z,74.47
2023-12-17T08:57:41.641Z,74.57
2023-12-17T09:00:09.168Z,74.22
2023-12-17T09:02:36.167Z,74.49
2023-12-17T09:05:04.332Z,74.49
2023-12-17T09:07:33.635Z,74.21
2023-12-17T09:10:00.787Z,74.02
2023-12-17T09:12:28.281Z,73.76
2023-12-17T09:14:56.844Z,74.07
2023-12-17T09:17:29.485Z,73.85
2023-12-17T09:19:59.482Z,74.07
2023-12-17T09:22:26.405Z,74.07
2023-12-17T09:24:53.481Z,73.74
2023-12-17T09:27:29.198Z,73.44
2023-12-17T09:29:56.189Z,73.45
2023-12-17T09:32:23.121Z,73.54
2023-12-17T09:34:52.944Z,73.59
2023-12-17T09:37:21.471Z,74.11
2023-12-17T09:39:48.291Z,74.14
2023-12-17T09:42:22.258Z,73.93
2023-12-17T09:44:52.823Z,74.08
2023-12-17T09:47:22.686Z,74.65
2023-12-17T09:49:49.699Z,74.36
2023-12-17T09:52:27.860Z,74.40
2023-12-17T09:54:56.808Z,73.99
2023-12-17T09:57:30.148Z,74.09
2023-12-17T10:00:05.352Z,73.96
2023-12-17T10:02:38.985Z,73.85
2023-12-17T10:05:16.132Z,74.23
2023-12-17T10:07:43.353Z,73.96
2023-12-17T10:10:10.506Z,73.94
2023-12-17T10:12:37.554Z,74.52
2023-12-17T10:15:04.935Z,74.12
2023-12-17T10:17:35.073Z,73.69
2023-12-17T10:20:07.451Z,73.61
2023-12-17T10:22:34.382Z,74.18
2023-12-17T10:25:04.040Z,73.96
2023-12-17T10:27:32.722Z,74.04
2023-12-17T10:30:01.695Z,74.14
2023-12-17T10:32:28.563Z,73.75
2023-12-17T10:34:55.907Z,73.68
2023-12-17T10:37:23.956Z,74.29
2023-12-17T10:39:59.304Z,73.67
2023-12-17T10:42:29.441Z,73.32
2023-12-17T10:44:58.019Z,73.42
2023-12-17T10:47:26.992Z,73.06
2023-12-17T10:49:55.159Z,72.42
2023-12-17T10:52:22.773Z,72.90
2023-12-17T10:54:53.621Z,72.89
2023-12-17T10:57:25.136Z,72.35
2023-12-17T10:59:55.207Z,72.00
2023-12-17T11:02:27.207Z,71.61
2023-12-17T11:04:56.919Z,71.75
2023-12-17T11:07:37.249Z,71.01
2023-12-17T11:10:13.150Z,70.97
2023-12-17T11:12:45.824Z,70.33
2023-12-17T11:15:20.893Z,70.60
2023-12-17T11:17:54.429Z,70.49
2023-12-17T11:20:22.565Z,70.53
2023-12-17T11:23:00.309Z,69.67
2023-12-17T11:25:33.498Z,69.78
2023-12-17T11:28:01.030Z,70.26
2023-12-17T11:30:33.916Z,70.05
2023-12-17T11:33:12.842Z,69.53
2023-12-17T11:35:40.138Z,69.06
2023-12-17T11:38:09.883Z,69.21
2023-12-17T11:40:36.740Z,69.65
2023-12-17T11:43:04.128Z,70.21
2023-12-17T11:45:41.656Z,69.62
2023-12-17T11:48:19.906Z,69.74
2023-12-17T11:50:52.405Z,70.38
2023-12-17T11:53:24.520Z,70.57
2023-12-17T11:55:52.683Z,69.70
2023-12-17T11:58:22.083Z,69.22
2023-12-17T12:01:19.725Z,68.58
2023-12-17T12:03:47.375Z,68.81
2023-12-17T12:06:16.742Z,69.05
2023-12-17T12:08:48.045Z,68.23
2023-12-17T12:11:28.276Z,67.73
2023-12-17T12:14:03.246Z,67.60
2023-12-17T12:16:38.535Z,67.91
2023-12-17T12:19:08.727Z,68.18
2023-12-17T12:21:37.818Z,68.03
2023-12-17T12:24:11.093Z,67.51
2023-12-17T12:26:38.203Z,67.17
2023-12-17T12:29:06.454Z,67.25
2023-12-17T12:31:33.762Z,66.95
2023-12-17T12:34:02.674Z,66.24
2023-12-17T12:36:46.846Z,66.40
2023-12-17T12:39:18.256Z,66.17
2023-12-17T12:41:53.568Z,66.03
2023-12-17T12:44:20.614Z,66.38
2023-12-17T12:46:54.764Z,65.94
2023-12-17T12:49:26.802Z,66.31
2023-12-17T12:51:54.472Z,66.34
2023-12-17T12:54:21.443Z,66.01
2023-12-17T12:56:48.474Z,66.64
2023-12-17T12:59:22.998Z,66.42
2023-12-17T13:01:52.554Z,66.51
2023-12-17T13:04:19.953Z,66.22
2023-12-17T13:06:47.093Z,65.63
2023-12-17T13:09:17.835Z,65.29
2023-12-17T13:11:50.461Z,65.95
2023-12-17T13:14:17.356Z,65.83
2023-12-17T13:16:44.802Z,65.80
2023-12-17T13:19:14.901Z,65.46
2023-12-17T13:21:42.604Z,65.52
2023-12-17T13:24:09.574Z,64.78
2023-12-17T13:29:27.898Z,64.53
2023-12-17T13:31:58.116Z,64.83
2023-12-17T13:34:30.491Z,64.58
2023-12-17T13:37:00.420Z,64.67
2023-12-17T13:39:28.600Z,64.70
2023-12-17T13:42:02.351Z,65.07
2023-12-17T13:44:43.375Z,64.65
2023-12-17T13:47:22.157Z,64.27
2023-12-17T13:49:57.026Z,64.48
2023-12-17T13:52:28.787Z,64.69
2023-12-17T13:55:03.297Z,64.15
2023-12-17T13:57:33.795Z,63.69
2023-12-17T14:00:01.063Z,63.55
2023-12-17T14:02:37.292Z,63.40
2023-12-17T14:05:10.586Z,63.57
2023-12-17T14:07:48.891Z,63.78
2023-12-17T14:10:21.035Z,63.56
2023-12-17T14:12:55.980Z,63.56
2023-12-17T14:15:28.718Z,63.94
2023-12-17T14:18:03.314Z,64.12
2023-12-17T14:20:30.219Z,63.47
2023-12-17T14:22:59.997Z,63.63
2023-12-17T14:25:39.778Z,63.09
2023-12-17T14:28:09.607Z,63.26
2023-12-17T14:30:36.585Z,63.04
2023-12-17T14:33:11.211Z,62.86
2023-12-17T14:35:38.622Z,62.68
2023-12-17T14:38:13.433Z,62.21
2023-12-17T14:40:43.657Z,61.95
2023-12-17T14:43:10.519Z,62.12
2023-12-17T14:45:43.066Z,62.43
2023-12-17T14:48:12.598Z,62.24
2023-12-17T14:50:39.546Z,62.01
2023-12-17T14:53:15.531Z,62.50
2023-12-17T14:55:43.117Z,62.54
2023-12-17T14:58:09.931Z,62.64
2023-12-17T15:00:36.861Z,62.25
2023-12-17T15:03:03.952Z,62.53
2023-12-17T15:05:30.901Z,62.83
2023-12-17T15:07:57.831Z,63.83
2023-12-17T15:10:24.651Z,63.40
2023-12-17T15:12:51.433Z,62.98
2023-12-17T15:15:21.137Z,63.03
2023-12-17T15:17:48.225Z,62.89
2023-12-17T15:20:15.272Z,63.36
2023-12-17T15:22:42.142Z,63.84
2023-12-17T15:25:09.155Z,64.01
2023-12-17T15:27:36.025Z,64.81
2023-12-17T15:30:03.243Z,64.70
2023-12-17T15:32:30.044Z,64.62
2023-12-17T15:34:57.105Z,65.47
2023-12-17T15:37:23.962Z,66.40
2023-12-17T15:39:50.779Z,66.44
2023-12-17T15:42:20.469Z,66.64
2023-12-17T15:44:47.575Z,66.59
2023-12-17T15:47:14.366Z,68.41
2023-12-17T15:49:41.202Z,68.11
2023-12-17T15:52:08.161Z,68.01
2023-12-17T15:54:35.178Z,67.92
2023-12-17T15:57:02.543Z,68.11
2023-12-17T15:59:29.332Z,68.18
2023-12-17T16:01:56.116Z,69.20
2023-12-17T16:04:22.923Z,69.19
2023-12-17T16:06:49.742Z,69.80
2023-12-17T16:09:16.674Z,70.47
2023-12-17T16:11:43.783Z,70.24
2023-12-17T16:14:10.717Z,70.18
2023-12-17T16:16:37.682Z,70.65
2023-12-17T16:19:04.723Z,70.85
2023-12-17T16:21:39.286Z,71.01
2023-12-17T16:24:14.524Z,70.94
2023-12-17T16:26:49.480Z,71.53
2023-12-17T16:29:22.151Z,72.10
2023-12-17T16:31:48.966Z,71.50
2023-12-17T16:34:16.038Z,71.92
2023-12-17T16:36:48.957Z,72.96
2023-12-17T16:39:17.253Z,72.74
2023-12-17T16:53:31.556Z,71.34
2023-12-17T16:55:58.583Z,71.84
2023-12-17T16:58:25.628Z,72.10
2023-12-17T17:00:55.663Z,71.93
2023-12-17T17:03:22.676Z,71.59
2023-12-17T17:05:49.846Z,71.73
2023-12-17T17:08:17.795Z,71.99
2023-12-17T17:10:49.522Z,72.01
2023-12-17T17:13:25.219Z,72.52
2023-12-17T17:15:54.387Z,73.40
2023-12-17T17:18:25.294Z,73.11
2023-12-17T17:20:59.325Z,73.02
2023-12-17T17:23:32.652Z,72.91
2023-12-17T17:26:09.293Z,73.83
2023-12-17T17:28:44.466Z,73.57
2023-12-17T17:31:11.696Z,73.30
2023-12-17T17:33:39.513Z,72.82
2023-12-17T17:36:10.340Z,72.38
2023-12-17T17:38:48.219Z,73.16
2023-12-17T17:41:20.845Z,73.51
2023-12-17T17:43:47.821Z,73.18
2023-12-17T17:46:14.717Z,73.10
2023-12-17T17:48:45.879Z,73.31
2023-12-17T17:51:16.132Z,73.46
2023-12-17T17:53:43.351Z,74.29
2023-12-17T17:56:12.861Z,74.16
2023-12-17T17:58:46.675Z,73.72
2023-12-17T18:01:17.471Z,73.25
2023-12-17T18:03:44.400Z,73.51
2023-12-17T18:06:11.824Z,73.95
2023-12-17T18:08:41.723Z,73.49
2023-12-17T18:11:08.538Z,73.62
2023-12-17T18:13:37.262Z,74.38
2023-12-17T18:16:04.403Z,74.15
2023-12-17T18:18:31.448Z,74.04
2023-12-17T18:20:58.340Z,74.39
2023-12-17T18:23:28.235Z,74.27
2023-12-17T18:25:55.044Z,74.58
2023-12-17T18:28:21.944Z,74.50
2023-12-17T18:30:48.821Z,75.17
2023-12-17T18:33:15.941Z,75.55
2023-12-17T18:35:48.051Z,75.01
2023-12-17T18:38:17.438Z,75.62
2023-12-17T18:40:46.928Z,75.43
2023-12-17T18:43:13.821Z,76.14
2023-12-17T18:45:41.030Z,76.53
2023-12-17T18:48:08.313Z,75.85
2023-12-17T18:50:35.271Z,76.47
2023-12-17T18:53:04.546Z,76.67
2023-12-17T18:55:35.393Z,77.09
2023-12-17T18:58:11.434Z,76.67
2023-12-17T19:00:38.472Z,76.92
2023-12-17T19:03:05.638Z,77.08
2023-12-17T19:05:33.000Z,77.26
2023-12-17T19:08:01.338Z,77.66
2023-12-17T19:10:28.179Z,77.75
2023-12-17T19:12:54.991Z,78.39
2023-12-17T19:15:22.124Z,78.41
2023-12-17T19:17:49.146Z,78.18
2023-12-17T19:20:19.909Z,78.30
2023-12-17T19:22:46.833Z,79.08
2023-12-17T19:25:13.996Z,78.91
2023-12-17T19:27:40.838Z,78.93
2023-12-17T19:30:11.029Z,79.51
2023-12-17T19:32:41.069Z,79.16
2023-12-17T19:35:08.086Z,79.34
2023-12-17T19:37:35.238Z,79.78
2023-12-17T19:40:07.642Z,79.94
2023-12-17T19:42:37.048Z,79.83
2023-12-17T19:45:09.946Z,79.67
2023-12-17T19:47:37.435Z,79.82
2023-12-17T19:50:07.020Z,79.25
2023-12-17T19:52:34.399Z,79.11
2023-12-17T19:55:01.363Z,78.94
2023-12-17T19:57:28.269Z,79.09
2023-12-17T19:59:55.131Z,79.19
2023-12-17T20:02:21.939Z,79.42
2023-12-17T20:04:51.740Z,79.20
2023-12-17T20:07:18.597Z,79.40
2023-12-17T20:10:00.195Z,79.66
2023-12-17T20:12:31.116Z,79.36
2023-12-17T20:15:01.300Z,79.26
2023-12-17T20:17:28.718Z,79.16
2023-12-17T20:19:55.677Z,79.52
2023-12-17T20:22:23.661Z,79.88
2023-12-17T20:24:56.354Z,80.22
2023-12-17T20:27:23.205Z,79.84
2023-12-17T20:29:50.112Z,79.92
2023-12-17T20:32:19.272Z,80.15
2023-12-17T20:34:46.139Z,79.77
2023-12-17T20:37:13.048Z,79.95
2023-12-17T20:39:41.062Z,80.29
2023-12-17T20:42:08.109Z,79.93
2023-12-17T20:44:39.510Z,80.33
2023-12-17T20:47:17.902Z,80.44
2023-12-17T20:49:54.577Z,80.14
2023-12-17T20:52:21.525Z,80.70
2023-12-17T20:54:58.192Z,80.07
2023-12-17T20:57:28.862Z,80.03
2023-12-17T20:59:55.846Z,79.90
2023-12-17T21:02:28.235Z,80.26
2023-12-17T21:05:02.379Z,80.48
2023-12-17T21:07:38.847Z,80.64
2023-12-17T21:10:15.039Z,80.64
2023-12-17T21:12:59.481Z,80.42
2023-12-17T21:15:43.803Z,80.32
2023-12-17T21:18:25.087Z,80.13
2023-12-17T21:20:55.545Z,80.75
2023-12-17T21:23:36.516Z,80.81
2023-12-17T21:26:19.751Z,80.28
2023-12-17T21:29:05.844Z,80.26
2023-12-17T21:31:53.383Z,80.31
2023-12-17T21:34:39.159Z,80.86
2023-12-17T21:37:32.670Z,80.50
2023-12-17T21:40:10.316Z,80.52
2023-12-17T21:42:52.008Z,80.42
2023-12-17T21:45:33.967Z,80.09
2023-12-17T21:48:19.044Z,80.59
2023-12-17T21:51:01.261Z,80.33
2023-12-17T21:53:31.237Z,81.03
2023-12-17T21:56:18.143Z,81.33
2023-12-17T21:58:58.420Z,81.23
2023-12-17T22:01:34.119Z,81.47
2023-12-17T22:04:04.201Z,81.58
2023-12-17T22:06:43.138Z,81.41
2023-12-17T22:09:24.904Z,81.40
2023-12-17T22:12:01.284Z,81.05
2023-12-17T22:14:34.097Z,80.98
2023-12-17T22:17:01.538Z,81.31
2023-12-17T22:19:31.070Z,81.03
2023-12-17T22:22:01.144Z,81.42
2023-12-17T22:24:30.386Z,80.55
2023-12-17T22:27:08.092Z,80.52
2023-12-17T22:29:38.664Z,80.10
2023-12-17T22:32:06.674Z,80.42
2023-12-17T22:34:41.120Z,79.91
2023-12-17T22:37:09.797Z,80.50
2023-12-17T22:39:37.274Z,79.83
2023-12-17T22:42:04.741Z,80.13
2023-12-17T22:44:42.075Z,79.91
2023-12-17T22:47:21.881Z,79.87
2023-12-17T22:49:48.896Z,79.85
2023-12-17T22:52:18.751Z,78.92
2023-12-17T22:54:45.651Z,78.83
2023-12-17T22:57:12.612Z,78.46
2023-12-17T22:59:39.984Z,78.34
2023-12-17T23:02:09.817Z,78.53
2023-12-17T23:04:43.388Z,79.11
2023-12-17T23:07:14.778Z,78.50
2023-12-17T23:09:42.122Z,78.71
2023-12-17T23:12:08.997Z,78.99
2023-12-17T23:14:35.964Z,79.12
2023-12-17T23:17:05.380Z,79.63
2023-12-17T23:19:35.078Z,79.36
2023-12-17T23:22:01.933Z,79.30
2023-12-17T23:24:28.807Z,79.53
2023-12-17T23:26:55.770Z,79.51
2023-12-17T23:29:22.875Z,79.62
2023-12-17T23:31:49.901Z,79.82
2023-12-17T23:34:20.108Z,79.75
2023-12-17T23:36:55.836Z,80.31
2023-12-17T23:39:23.172Z,80.06
2023-12-17T23:41:52.800Z,79.91
2023-12-17T23:44:20.015Z,79.14
2023-12-17T23:46:48.964Z,79.57
2023-12-17T23:49:19.175Z,79.48
2023-12-17T23:51:46.086Z,79.31
2023-12-17T23:54:13.191Z,78.48
2023-12-17T23:56:45.575Z,78.28
2023-12-17T23:59:15.438Z,78.55
